Time;durP1;ratioP1;P1;durP2;ratioP2;P2;SDS_P1;SDS_P2;PMS_P1;PMS_P2;Temp;Humidity;BMP_temperature;BMP_pressure;BME280_temperature;BME280_humidity;BME280_pressure;Samples;Min_cycle;Max_cycle;Signal;HPM_P1;HPM_P2
2024/01/27 00:00:36;;;;;;;38.85;3.88;;;2.80;99.90;;;;;;5046536;28;20052;-88
2024/01/27 00:03:02;;;;;;;33.80;4.65;;;3.60;99.90;;;;;;5044454;28;20045;-88
2024/01/27 00:05:28;;;;;;;34.28;4.18;;;2.30;99.90;;;;;;5046924;28;20506;-88
2024/01/27 00:07:54;;;;;;;36.63;5.20;;;2.40;99.90;;;;;;5047795;28;20047;-89
2024/01/27 00:10:20;;;;;;;25.95;4.32;;;3.10;99.90;;;;;;5045002;28;20064;-87
2024/01/27 00:12:46;;;;;;;24.25;2.42;;;1.60;99.90;;;;;;5028634;28;20595;-89
2024/01/27 00:15:12;;;;;;;26.77;2.78;;;3.30;99.90;;;;;;5036233;28;20650;-89
2024/01/27 00:17:38;;;;;;;28.23;3.58;;;2.30;99.90;;;;;;5041764;28;20036;-88
2024/01/27 00:20:04;;;;;;;29.83;3.63;;;3.40;99.90;;;;;;5020785;28;20076;-87
2024/01/27 00:22:33;;;;;;;29.33;3.42;;;2.50;99.90;;;;;;5028411;28;20036;-88
2024/01/27 00:25:01;;;;;;;24.33;3.50;;;3.00;99.90;;;;;;5024769;28;20049;-89
2024/01/27 00:27:27;;;;;;;38.45;6.65;;;3.80;99.90;;;;;;5042588;28;20048;-89
2024/01/27 00:30:00;;;;;;;23.85;3.67;;;2.70;99.90;;;;;;5027840;28;20045;-87
2024/01/27 00:32:26;;;;;;;27.25;3.25;;;3.00;99.90;;;;;;5039760;28;20040;-88
2024/01/27 00:34:52;;;;;;;27.58;2.67;;;-0.80;99.90;;;;;;5026625;28;20044;-90
2024/01/27 00:37:18;;;;;;;28.48;4.13;;;2.90;99.90;;;;;;5028947;28;20497;-85
2024/01/27 00:39:45;;;;;;;34.97;4.18;;;3.10;99.90;;;;;;5027440;28;20155;-88
2024/01/27 00:42:11;;;;;;;38.63;3.97;;;3.00;99.90;;;;;;5047169;28;20049;-88
2024/01/27 00:44:40;;;;;;;31.23;3.58;;;2.70;99.90;;;;;;5026819;28;20040;-89
2024/01/27 00:47:05;;;;;;;27.25;2.83;;;3.60;99.90;;;;;;5028223;28;20048;-89
2024/01/27 00:49:31;;;;;;;34.38;3.63;;;3.00;99.90;;;;;;5044562;28;20041;-88
2024/01/27 00:51:57;;;;;;;26.92;3.55;;;2.60;99.90;;;;;;5025406;28;20066;-88
2024/01/27 00:54:25;;;;;;;26.30;3.00;;;1.50;99.90;;;;;;5043682;28;20136;-90
2024/01/27 00:56:51;;;;;;;31.20;4.38;;;2.80;99.90;;;;;;5043997;28;20053;-85
2024/01/27 00:59:19;;;;;;;27.67;4.28;;;2.60;99.90;;;;;;5028060;28;20052;-90
2024/01/27 01:01:45;;;;;;;30.63;4.22;;;2.60;99.90;;;;;;5035802;28;20041;-87
2024/01/27 01:04:11;;;;;;;27.73;3.63;;;4.20;99.90;;;;;;5028457;28;20043;-87
2024/01/27 01:06:39;;;;;;;21.73;3.13;;;4.30;99.90;;;;;;5044961;28;20096;-90
2024/01/27 01:09:05;;;;;;;22.17;2.65;;;2.70;99.90;;;;;;5027033;28;20068;-86
2024/01/27 01:11:31;;;;;;;24.42;3.03;;;2.70;99.90;;;;;;5026281;28;20194;-89
2024/01/27 01:13:57;;;;;;;24.33;2.28;;;2.70;99.90;;;;;;5041879;28;20094;-87
2024/01/27 01:16:23;;;;;;;26.20;3.08;;;2.70;99.90;;;;;;5024364;28;20041;-87
2024/01/27 01:18:48;;;;;;;23.42;3.28;;;2.70;99.90;;;;;;5025371;28;20137;-88
2024/01/27 01:21:28;;;;;;;20.23;2.60;;;2.80;99.90;;;;;;5043709;28;20066;-85
2024/01/27 01:23:54;;;;;;;24.23;2.33;;;1.60;99.90;;;;;;5045859;28;20052;-88
2024/01/27 01:26:20;;;;;;;20.02;2.95;;;3.20;99.90;;;;;;5028758;28;20043;-91
2024/01/27 01:28:46;;;;;;;25.00;2.42;;;2.50;99.90;;;;;;5027134;28;20048;-86
2024/01/27 01:31:12;;;;;;;16.40;2.38;;;2.80;99.90;;;;;;5040841;28;20056;-87
2024/01/27 01:33:38;;;;;;;23.95;3.35;;;3.00;99.90;;;;;;5028548;28;20044;-87
2024/01/27 01:36:04;;;;;;;22.65;2.92;;;2.30;99.90;;;;;;5023314;28;20074;-87
2024/01/27 01:38:30;;;;;;;20.40;2.85;;;2.30;99.90;;;;;;5023916;28;20120;-90
2024/01/27 01:40:59;;;;;;;20.60;4.35;;;3.80;99.90;;;;;;5042678;28;20063;-86
2024/01/27 01:43:25;;;;;;;23.48;2.50;;;2.60;99.90;;;;;;5025690;28;20078;-86
2024/01/27 01:45:53;;;;;;;25.38;2.65;;;2.40;99.90;;;;;;5042537;28;20049;-88
2024/01/27 01:48:23;;;;;;;31.98;3.75;;;3.80;99.90;;;;;;5027359;28;20036;-88
2024/01/27 01:50:49;;;;;;;25.90;3.47;;;4.30;99.90;;;;;;5026678;28;20651;-89
2024/01/27 01:53:15;;;;;;;26.80;2.40;;;2.20;99.90;;;;;;5029624;28;20202;-88
2024/01/27 01:55:41;;;;;;;23.90;3.38;;;3.30;99.90;;;;;;5029748;28;20040;-88
2024/01/27 01:58:08;;;;;;;29.27;3.40;;;2.40;99.90;;;;;;5046049;28;20045;-90
2024/01/27 02:00:34;;;;;;;25.90;3.05;;;1.00;99.90;;;;;;5032079;28;20456;-88
2024/01/27 02:02:59;;;;;;;27.55;4.03;;;1.90;99.90;;;;;;5045024;28;20037;-91
2024/01/27 02:05:28;;;;;;;30.98;4.40;;;2.10;99.90;;;;;;5040329;28;20045;-88
2024/01/27 02:07:56;;;;;;;31.42;4.05;;;2.40;99.90;;;;;;5031720;28;20045;-88
2024/01/27 02:10:24;;;;;;;25.13;2.65;;;3.10;99.90;;;;;;5024883;28;20083;-88
2024/01/27 02:12:50;;;;;;;22.52;2.92;;;2.00;99.90;;;;;;5028976;28;20068;-87
2024/01/27 02:15:16;;;;;;;26.52;4.00;;;2.60;99.90;;;;;;5032029;28;20068;-90
2024/01/27 02:17:42;;;;;;;31.75;2.92;;;2.10;99.90;;;;;;5033645;28;20051;-91
2024/01/27 02:20:09;;;;;;;18.45;2.42;;;2.20;99.90;;;;;;5024752;28;20041;-87
2024/01/27 02:22:35;;;;;;;21.60;3.35;;;3.20;99.90;;;;;;5030937;28;20044;-87
2024/01/27 02:25:03;;;;;;;19.30;2.38;;;2.80;99.90;;;;;;5034631;28;20041;-86
2024/01/27 02:27:32;;;;;;;31.98;4.22;;;0.90;99.90;;;;;;5047799;28;20091;-88
2024/01/27 02:29:58;;;;;;;27.08;2.60;;;3.10;99.90;;;;;;5047322;28;20494;-86
2024/01/27 02:32:24;;;;;;;29.52;4.65;;;2.60;99.90;;;;;;5045996;28;20056;-88
2024/01/27 02:34:50;;;;;;;16.75;1.92;;;2.20;99.90;;;;;;5049741;28;20048;-87
2024/01/27 02:37:15;;;;;;;21.05;1.70;;;2.70;99.90;;;;;;5049915;28;20040;-87
2024/01/27 02:39:41;;;;;;;27.45;4.15;;;3.50;99.90;;;;;;5044565;28;20057;-88
2024/01/27 02:42:07;;;;;;;31.88;3.80;;;2.10;99.90;;;;;;5051922;28;20041;-88
2024/01/27 02:44:33;;;;;;;34.20;5.15;;;2.60;99.90;;;;;;5032905;28;20052;-87
2024/01/27 02:46:59;;;;;;;22.60;2.28;;;2.00;99.90;;;;;;5044218;28;20037;-89
2024/01/27 02:49:24;;;;;;;30.33;4.82;;;-0.90;99.90;;;;;;5028487;28;20040;-91
2024/01/27 02:51:50;;;;;;;21.75;2.78;;;2.00;99.90;;;;;;5030024;28;20813;-90
2024/01/27 02:54:16;;;;;;;22.98;2.95;;;2.10;99.90;;;;;;5028867;28;20170;-88
2024/01/27 02:56:42;;;;;;;27.17;3.10;;;5.10;99.90;;;;;;5033418;28;20161;-88
2024/01/27 02:59:08;;;;;;;23.40;4.25;;;2.00;99.90;;;;;;5029356;28;20051;-90
2024/01/27 03:01:34;;;;;;;17.13;2.13;;;2.00;99.90;;;;;;5029050;28;20045;-89
2024/01/27 03:03:59;;;;;;;17.02;3.28;;;2.00;99.90;;;;;;5031126;28;20045;-86
2024/01/27 03:06:25;;;;;;;24.10;3.63;;;2.90;99.90;;;;;;5045378;28;20101;-89
2024/01/27 03:08:51;;;;;;;28.38;3.10;;;2.60;99.90;;;;;;5022130;28;20493;-89
2024/01/27 03:11:17;;;;;;;21.92;3.65;;;2.50;99.90;;;;;;5028574;28;20087;-86
2024/01/27 03:13:45;;;;;;;29.92;3.45;;;2.00;99.90;;;;;;5035841;28;20048;-90
2024/01/27 03:16:11;;;;;;;29.23;4.90;;;1.90;99.90;;;;;;5029298;28;20406;-89
2024/01/27 03:18:37;;;;;;;21.08;3.20;;;1.90;99.90;;;;;;5035783;28;20117;-90
2024/01/27 03:21:05;;;;;;;19.27;3.70;;;1.90;99.90;;;;;;5028815;28;20045;-90
2024/01/27 03:23:31;;;;;;;22.80;2.83;;;1.80;99.90;;;;;;5028441;28;20040;-89
2024/01/27 03:25:57;;;;;;;28.63;2.88;;;1.80;99.90;;;;;;5029287;28;20044;-89
2024/01/27 03:28:22;;;;;;;17.45;2.38;;;1.70;99.90;;;;;;5047215;28;20065;-88
2024/01/27 03:30:48;;;;;;;22.60;4.20;;;1.70;99.90;;;;;;5047217;28;20080;-86
2024/01/27 03:33:14;;;;;;;28.67;4.25;;;1.70;99.90;;;;;;5029404;28;20083;-86
2024/01/27 03:35:40;;;;;;;24.40;3.33;;;1.70;99.90;;;;;;5048923;28;20048;-86
2024/01/27 03:38:06;;;;;;;30.25;3.03;;;1.90;99.90;;;;;;5047612;28;20497;-90
2024/01/27 03:40:32;;;;;;;20.70;3.10;;;1.60;99.90;;;;;;5046886;28;20541;-87
2024/01/27 03:42:58;;;;;;;24.17;3.22;;;2.20;99.90;;;;;;5040567;28;20458;-88
2024/01/27 03:45:24;;;;;;;30.23;4.05;;;1.70;99.90;;;;;;5027960;28;20128;-86
2024/01/27 03:47:49;;;;;;;21.20;3.40;;;1.80;99.90;;;;;;5031362;28;20044;-87
2024/01/27 03:50:15;;;;;;;35.15;5.43;;;1.60;99.90;;;;;;5033014;28;20036;-89
2024/01/27 03:52:41;;;;;;;28.02;4.43;;;1.50;99.90;;;;;;5024937;28;20060;-89
2024/01/27 03:55:07;;;;;;;23.08;3.15;;;1.70;99.90;;;;;;5027350;28;20041;-87
2024/01/27 03:57:33;;;;;;;34.05;2.53;;;1.40;99.90;;;;;;5027268;28;20102;-87
2024/01/27 03:59:59;;;;;;;20.27;3.75;;;2.90;99.90;;;;;;5021211;28;20075;-87
2024/01/27 04:02:24;;;;;;;33.45;5.07;;;1.50;99.90;;;;;;5043171;28;20131;-86
2024/01/27 04:04:50;;;;;;;25.88;2.17;;;2.50;99.90;;;;;;5025085;28;20048;-87
2024/01/27 04:07:16;;;;;;;34.35;3.22;;;1.40;99.90;;;;;;5026697;28;20123;-88
2024/01/27 04:09:42;;;;;;;25.27;2.88;;;1.80;99.90;;;;;;5028506;28;20045;-87
2024/01/27 04:12:08;;;;;;;28.00;2.67;;;2.10;99.90;;;;;;5044393;28;20044;-87
2024/01/27 04:14:34;;;;;;;19.02;3.40;;;1.90;99.90;;;;;;5030562;28;20891;-87
2024/01/27 04:17:00;;;;;;;25.85;4.35;;;2.00;99.90;;;;;;5028255;28;20403;-89
2024/01/27 04:19:26;;;;;;;22.13;3.55;;;1.50;99.90;;;;;;5052389;28;20062;-87
2024/01/27 04:21:55;;;;;;;25.58;2.97;;;2.20;99.90;;;;;;5021328;28;20037;-87
2024/01/27 04:24:23;;;;;;;18.83;2.85;;;2.20;99.90;;;;;;5045374;28;20409;-88
2024/01/27 04:26:49;;;;;;;23.20;2.50;;;4.00;99.90;;;;;;5028142;28;20057;-87
2024/01/27 04:29:15;;;;;;;30.95;4.55;;;0.50;99.90;;;;;;5027585;28;20041;-87
2024/01/27 04:31:42;;;;;;;26.20;3.95;;;2.70;99.90;;;;;;5043263;28;20372;-90
2024/01/27 04:34:11;;;;;;;25.63;4.25;;;4.10;99.90;;;;;;5042544;28;20166;-86
2024/01/27 04:36:37;;;;;;;37.05;2.60;;;1.90;99.90;;;;;;5018360;28;20045;-88
2024/01/27 04:39:04;;;;;;;37.70;5.28;;;2.90;99.90;;;;;;5024923;28;20048;-87
2024/01/27 04:41:32;;;;;;;23.25;2.78;;;5.90;99.90;;;;;;5026694;28;20037;-88
2024/01/27 04:43:58;;;;;;;29.13;4.95;;;2.30;99.90;;;;;;5024890;28;20073;-89
2024/01/27 04:46:24;;;;;;;34.63;4.00;;;1.70;99.90;;;;;;5043483;28;20052;-87
2024/01/27 04:48:50;;;;;;;16.85;2.20;;;2.40;99.90;;;;;;5043639;28;20037;-89
2024/01/27 04:51:16;;;;;;;27.08;4.03;;;2.00;99.90;;;;;;5043092;28;20529;-85
2024/01/27 04:53:42;;;;;;;22.15;2.45;;;2.40;99.90;;;;;;5042827;28;20048;-87
2024/01/27 04:56:09;;;;;;;25.58;4.25;;;2.40;99.90;;;;;;5028069;28;20505;-89
2024/01/27 04:58:35;;;;;;;19.45;4.50;;;1.60;99.90;;;;;;5029727;28;20037;-90
2024/01/27 05:01:02;;;;;;;24.33;5.32;;;-0.50;99.90;;;;;;5028713;28;20619;-90
2024/01/27 05:03:27;;;;;;;23.02;3.22;;;1.60;99.90;;;;;;5010490;28;20678;-85
2024/01/27 05:05:53;;;;;;;32.90;4.03;;;1.60;99.90;;;;;;5041872;28;20036;-85
2024/01/27 05:08:19;;;;;;;22.88;3.60;;;2.10;99.90;;;;;;5030737;28;20672;-87
2024/01/27 05:10:45;;;;;;;26.52;4.05;;;2.00;99.90;;;;;;5043244;28;20048;-88
2024/01/27 05:13:11;;;;;;;27.15;3.50;;;1.50;99.90;;;;;;5044471;28;20041;-86
2024/01/27 05:15:39;;;;;;;19.85;3.75;;;1.50;99.90;;;;;;5026357;28;20049;-88
2024/01/27 05:18:05;;;;;;;30.70;3.88;;;2.30;99.90;;;;;;5025129;28;20048;-86
2024/01/27 05:20:30;;;;;;;27.17;2.88;;;3.90;99.90;;;;;;5025693;28;20051;-83
2024/01/27 05:22:56;;;;;;;26.60;3.25;;;2.60;99.90;;;;;;5038123;28;20120;-89
2024/01/27 05:25:22;;;;;;;40.10;5.25;;;1.60;99.90;;;;;;5025415;28;20129;-87
2024/01/27 05:27:48;;;;;;;29.60;4.50;;;2.00;99.90;;;;;;5025521;28;20140;-83
2024/01/27 05:30:15;;;;;;;31.75;4.65;;;1.90;99.90;;;;;;5042497;28;20102;-86
2024/01/27 05:32:41;;;;;;;24.30;4.03;;;1.50;99.90;;;;;;5026010;28;20502;-86
2024/01/27 05:35:07;;;;;;;30.65;4.65;;;1.40;99.90;;;;;;5043881;28;20064;-85
2024/01/27 05:37:34;;;;;;;24.65;4.53;;;1.50;99.90;;;;;;5024131;28;20118;-87
2024/01/27 05:40:00;;;;;;;25.75;4.43;;;1.40;99.90;;;;;;5018028;28;20467;-85
2024/01/27 05:42:25;;;;;;;30.65;4.68;;;1.50;99.90;;;;;;5039385;28;20044;-87
2024/01/27 05:44:51;;;;;;;33.95;6.10;;;1.40;99.90;;;;;;5027561;28;20037;-87
2024/01/27 05:47:17;;;;;;;36.80;4.45;;;1.40;99.90;;;;;;5037036;28;20090;-86
2024/01/27 05:49:43;;;;;;;25.83;3.67;;;1.70;99.90;;;;;;5025137;28;20042;-87
2024/01/27 05:52:08;;;;;;;25.73;4.28;;;1.30;99.90;;;;;;5021915;28;20044;-89
2024/01/27 05:54:34;;;;;;;27.77;4.15;;;1.30;99.90;;;;;;5015541;28;20051;-85
2024/01/27 05:57:00;;;;;;;25.58;4.30;;;3.00;99.90;;;;;;5030274;28;20636;-89
2024/01/27 05:59:26;;;;;;;26.77;3.53;;;1.30;99.90;;;;;;5029318;28;20080;-86
2024/01/27 06:01:52;;;;;;;23.50;4.38;;;1.70;99.90;;;;;;5043446;28;20045;-88
2024/01/27 06:04:18;;;;;;;23.92;3.53;;;1.30;99.90;;;;;;5030260;28;20106;-89
2024/01/27 06:06:44;;;;;;;41.65;5.10;;;1.40;99.90;;;;;;5047540;28;20568;-87
2024/01/27 06:09:13;;;;;;;23.60;3.72;;;1.80;99.90;;;;;;5027964;28;20037;-84
2024/01/27 06:11:39;;;;;;;30.63;5.93;;;1.40;99.90;;;;;;5045572;28;20053;-89
2024/01/27 06:14:06;;;;;;;31.42;3.58;;;1.40;99.90;;;;;;5030090;28;20104;-88
2024/01/27 06:16:33;;;;;;;26.10;5.53;;;1.40;99.90;;;;;;5024657;28;20076;-87
2024/01/27 06:18:58;;;;;;;39.22;6.28;;;1.30;99.90;;;;;;5029291;28;20124;-88
2024/01/27 06:21:26;;;;;;;33.67;4.45;;;1.20;99.90;;;;;;5029379;28;20120;-86
2024/01/27 06:23:52;;;;;;;35.80;5.25;;;1.20;99.90;;;;;;5028720;28;20041;-88
2024/01/27 06:26:18;;;;;;;34.85;4.07;;;2.00;99.90;;;;;;5046758;28;20052;-86
2024/01/27 06:28:44;;;;;;;37.00;6.20;;;1.50;99.90;;;;;;5028907;28;20053;-90
2024/01/27 06:31:09;;;;;;;28.38;5.28;;;1.20;99.90;;;;;;5041795;28;20041;-87
2024/01/27 06:33:35;;;;;;;27.27;4.60;;;1.20;99.90;;;;;;5025869;28;20056;-86
2024/01/27 06:36:02;;;;;;;26.20;4.32;;;1.10;99.90;;;;;;5046229;28;20052;-87
2024/01/27 06:38:28;;;;;;;26.83;4.47;;;1.20;99.90;;;;;;5045725;28;20227;-88
2024/01/27 06:40:54;;;;;;;26.83;4.15;;;1.20;99.90;;;;;;5049220;28;20127;-90
2024/01/27 06:43:19;;;;;;;40.20;5.55;;;1.30;99.90;;;;;;5047319;28;20049;-88
2024/01/27 06:45:45;;;;;;;34.95;4.32;;;2.40;99.90;;;;;;5034530;28;20036;-88
2024/01/27 06:48:11;;;;;;;29.90;4.18;;;1.20;99.90;;;;;;5030925;28;20786;-86
2024/01/27 06:50:37;;;;;;;42.88;6.72;;;1.50;99.90;;;;;;5030537;28;20048;-88
2024/01/27 06:53:03;;;;;;;38.38;6.10;;;1.30;99.90;;;;;;5021182;28;20128;-87
2024/01/27 06:55:28;;;;;;;41.42;6.18;;;1.40;99.90;;;;;;5027958;28;20187;-87
2024/01/27 06:57:55;;;;;;;48.90;6.55;;;1.30;99.90;;;;;;5028823;28;20040;-87
2024/01/27 07:00:21;;;;;;;39.45;5.63;;;1.20;99.90;;;;;;5025154;28;20040;-87
2024/01/27 07:02:47;;;;;;;36.85;7.78;;;1.30;99.90;;;;;;5025877;28;20041;-86
2024/01/27 07:05:14;;;;;;;37.90;7.50;;;1.20;99.90;;;;;;5045725;28;20060;-87
2024/01/27 07:07:39;;;;;;;36.35;7.30;;;1.20;99.90;;;;;;5031000;28;20108;-88
2024/01/27 07:10:07;;;;;;;38.65;7.55;;;2.20;99.90;;;;;;5048963;28;20132;-86
2024/01/27 07:12:34;;;;;;;43.65;7.72;;;1.30;99.90;;;;;;5033639;28;20040;-87
2024/01/27 07:15:00;;;;;;;41.92;8.55;;;1.30;99.90;;;;;;5026858;28;20041;-89
2024/01/27 07:17:27;;;;;;;40.55;8.30;;;1.30;99.90;;;;;;5031252;28;20044;-86
2024/01/27 07:19:53;;;;;;;51.15;10.57;;;1.30;99.90;;;;;;5024618;28;20072;-88
2024/01/27 07:22:19;;;;;;;37.63;9.50;;;2.10;99.90;;;;;;5028646;28;20084;-87
2024/01/27 07:24:45;;;;;;;43.75;9.70;;;1.40;99.90;;;;;;5029003;28;20036;-88
2024/01/27 07:27:15;;;;;;;39.80;9.02;;;1.40;99.90;;;;;;5046672;28;20114;-84
2024/01/27 07:29:41;;;;;;;45.63;9.70;;;1.50;99.90;;;;;;5026294;28;20037;-88
2024/01/27 07:32:12;;;;;;;44.40;9.35;;;1.50;99.90;;;;;;5032430;28;20098;-89
2024/01/27 07:34:43;;;;;;;33.65;9.55;;;-0.40;99.90;;;;;;5045545;28;20106;-85
2024/01/27 07:37:09;;;;;;;47.78;10.88;;;1.50;99.90;;;;;;5033834;28;20682;-87
2024/01/27 07:39:34;;;;;;;43.40;10.68;;;1.50;99.90;;;;;;5030973;28;20049;-88
2024/01/27 07:42:20;;;;;;;48.20;11.50;;;1.70;99.90;;;;;;5027027;28;20060;-87
2024/01/27 07:44:46;;;;;;;45.90;13.18;;;1.50;99.90;;;;;;5023703;28;20052;-87
2024/01/27 07:47:12;;;;;;;48.58;9.93;;;1.50;99.90;;;;;;5046898;28;20830;-87
2024/01/27 07:49:38;;;;;;;52.28;11.73;;;2.90;99.90;;;;;;5024199;28;20053;-87
2024/01/27 07:52:04;;;;;;;54.05;12.13;;;1.70;99.90;;;;;;5027300;28;20492;-87
2024/01/27 07:54:31;;;;;;;47.97;14.40;;;1.50;99.90;;;;;;5024804;28;20052;-87
2024/01/27 07:56:56;;;;;;;56.75;12.90;;;1.50;99.90;;;;;;5031352;28;20052;-87
2024/01/27 07:59:22;;;;;;;55.45;12.82;;;2.30;99.90;;;;;;5047167;28;20054;-88
2024/01/27 08:01:48;;;;;;;42.88;13.65;;;1.90;99.90;;;;;;5028856;28;20053;-87
2024/01/27 08:04:16;;;;;;;58.45;14.63;;;1.20;99.90;;;;;;5030528;28;20056;-90
2024/01/27 08:06:50;;;;;;;46.13;14.07;;;1.40;99.90;;;;;;5065725;28;20036;-88
2024/01/27 08:09:16;;;;;;;60.58;16.45;;;3.10;99.90;;;;;;5040398;28;20044;-88
2024/01/27 08:11:43;;;;;;;51.83;15.80;;;2.00;99.90;;;;;;5024443;28;20191;-86
2024/01/27 08:14:09;;;;;;;53.13;17.20;;;0.00;99.90;;;;;;5030185;28;20051;-88
2024/01/27 08:16:35;;;;;;;50.10;16.88;;;1.90;99.90;;;;;;5052957;28;20060;-89
2024/01/27 08:19:01;;;;;;;46.00;13.52;;;3.10;99.90;;;;;;5027134;28;20045;-88
2024/01/27 08:21:27;;;;;;;52.63;15.00;;;-1.10;99.90;;;;;;5026119;28;20040;-87
2024/01/27 08:23:54;;;;;;;48.25;15.05;;;1.80;99.90;;;;;;5026204;28;20045;-88
2024/01/27 08:26:21;;;;;;;46.72;14.02;;;1.90;99.90;;;;;;5026473;28;20052;-85
2024/01/27 08:28:47;;;;;;;54.50;16.83;;;0.90;99.90;;;;;;5044945;28;20049;-88
2024/01/27 08:31:13;;;;;;;51.58;14.75;;;2.10;99.90;;;;;;5025112;28;20056;-86
2024/01/27 08:33:41;;;;;;;49.35;15.88;;;2.50;99.90;;;;;;5022378;28;20053;-86
2024/01/27 08:36:15;;;;;;;50.35;15.52;;;2.90;99.90;;;;;;5025926;28;20044;-86
2024/01/27 08:38:41;;;;;;;44.95;14.20;;;2.30;99.90;;;;;;5031262;28;20096;-86
2024/01/27 08:41:07;;;;;;;39.30;14.13;;;0.00;99.90;;;;;;5031671;28;20041;-85
2024/01/27 08:43:33;;;;;;;33.60;12.45;;;2.50;99.90;;;;;;5041946;28;20036;-86
2024/01/27 08:46:00;;;;;;;44.30;13.18;;;2.50;99.90;;;;;;5025448;28;20048;-85
2024/01/27 08:48:26;;;;;;;43.50;14.50;;;3.20;99.90;;;;;;5041030;28;20049;-86
2024/01/27 08:50:52;;;;;;;36.85;9.63;;;2.80;99.90;;;;;;5019282;28;20051;-87
2024/01/27 08:53:20;;;;;;;38.20;13.68;;;3.70;99.90;;;;;;5038968;28;20087;-88
2024/01/27 08:55:46;;;;;;;36.60;12.48;;;4.30;99.90;;;;;;5024584;28;20752;-85
2024/01/27 08:58:12;;;;;;;36.08;11.82;;;2.80;99.90;;;;;;5017693;28;20059;-86
2024/01/27 09:00:38;;;;;;;43.47;14.05;;;3.10;99.90;;;;;;5023506;28;20079;-87
2024/01/27 09:03:04;;;;;;;40.60;12.40;;;2.90;99.90;;;;;;5040358;28;20063;-86
2024/01/27 09:05:33;;;;;;;40.08;13.20;;;0.60;99.90;;;;;;5022783;28;20038;-86
2024/01/27 09:07:58;;;;;;;38.53;13.57;;;3.00;99.90;;;;;;5021506;28;20049;-86
2024/01/27 09:10:28;;;;;;;30.52;14.25;;;4.90;99.90;;;;;;5021390;28;20102;-87
2024/01/27 09:12:54;;;;;;;32.40;11.38;;;4.00;99.90;;;;;;5023609;28;20149;-84
2024/01/27 09:15:20;;;;;;;43.08;14.55;;;2.90;99.90;;;;;;5024332;28;20596;-86
2024/01/27 09:17:48;;;;;;;38.22;14.10;;;3.20;99.90;;;;;;5042939;28;20040;-85
2024/01/27 09:20:14;;;;;;;35.63;11.57;;;3.40;99.90;;;;;;5040138;28;20132;-87
2024/01/27 09:22:41;;;;;;;50.33;13.45;;;3.40;99.90;;;;;;5022666;28;20045;-89
2024/01/27 09:25:10;;;;;;;34.47;12.48;;;5.80;99.90;;;;;;5025659;28;20045;-88
2024/01/27 09:27:38;;;;;;;28.30;11.25;;;3.70;99.90;;;;;;5022808;28;20099;-85
2024/01/27 09:30:05;;;;;;;36.50;11.40;;;3.90;99.90;;;;;;5027366;28;20152;-86
2024/01/27 09:32:31;;;;;;;26.42;11.32;;;3.60;99.90;;;;;;5028277;28;20037;-84
2024/01/27 09:35:00;;;;;;;44.15;13.40;;;3.80;99.90;;;;;;5029184;28;20808;-86
2024/01/27 09:37:26;;;;;;;27.30;10.98;;;4.40;99.90;;;;;;5028442;28;20040;-84
2024/01/27 09:39:51;;;;;;;35.25;11.18;;;3.90;99.90;;;;;;5020190;28;20040;-87
2024/01/27 09:42:21;;;;;;;28.95;10.00;;;4.60;99.90;;;;;;5020123;28;20056;-84
2024/01/27 09:44:49;;;;;;;37.60;10.93;;;4.00;99.90;;;;;;5035010;28;20036;-86
2024/01/27 09:47:19;;;;;;;28.90;9.75;;;2.90;99.90;;;;;;5016535;28;20583;-86
2024/01/27 09:49:46;;;;;;;30.60;12.52;;;1.00;99.90;;;;;;5034069;28;20688;-85
2024/01/27 09:52:12;;;;;;;29.27;10.45;;;4.40;99.90;;;;;;5035710;28;20128;-84
2024/01/27 09:54:40;;;;;;;30.45;10.40;;;5.40;99.90;;;;;;5020557;28;20041;-83
2024/01/27 09:57:08;;;;;;;31.60;10.13;;;2.40;99.90;;;;;;5016566;28;20051;-85
2024/01/27 09:59:44;;;;;;;29.48;10.68;;;4.40;99.90;;;;;;5021364;28;20045;-87
2024/01/27 10:02:14;;;;;;;36.60;11.40;;;3.40;99.90;;;;;;5032156;28;20064;-85
2024/01/27 10:04:45;;;;;;;33.25;9.75;;;5.10;99.90;;;;;;5034490;28;20040;-84
2024/01/27 10:07:14;;;;;;;23.13;8.53;;;4.60;99.90;;;;;;5022537;28;20041;-84
2024/01/27 10:09:52;;;;;;;26.60;8.48;;;6.50;99.90;;;;;;5020476;28;20057;-88
2024/01/27 10:12:22;;;;;;;30.23;10.55;;;4.10;99.90;;;;;;5021068;28;20057;-83
2024/01/27 10:14:50;;;;;;;27.73;8.82;;;4.80;99.90;;;;;;5036776;28;20055;-83
2024/01/27 10:17:25;;;;;;;25.50;8.30;;;5.40;99.90;;;;;;5018221;28;20041;-84
2024/01/27 10:20:09;;;;;;;26.20;9.38;;;5.10;99.90;;;;;;5034408;28;20053;-85
2024/01/27 10:22:43;;;;;;;28.55;10.05;;;6.50;99.90;;;;;;5033968;28;20131;-82
2024/01/27 10:25:12;;;;;;;20.60;8.00;;;5.70;99.90;;;;;;5017602;28;20037;-87
2024/01/27 10:27:38;;;;;;;29.75;9.80;;;3.60;99.90;;;;;;5036823;28;20435;-84
2024/01/27 10:30:07;;;;;;;36.55;12.38;;;6.70;99.90;;;;;;5035169;28;20041;-85
2024/01/27 10:33:02;;;;;;;32.75;10.18;;;5.40;99.90;;;;;;5019755;28;20075;-84
2024/01/27 10:35:38;;;;;;;31.35;11.43;;;3.00;99.90;;;;;;5006782;28;20040;-85
2024/01/27 10:39:08;;;;;;;25.92;7.35;;;6.10;99.90;;;;;;5017240;28;20691;-88
2024/01/27 10:41:39;;;;;;;22.67;7.40;;;2.30;99.90;;;;;;5023949;28;20537;-86
2024/01/27 10:44:23;;;;;;;19.80;6.53;;;6.90;99.90;;;;;;5025233;28;20052;-86
2024/01/27 10:47:48;;;;;;;28.73;8.02;;;6.20;99.90;;;;;;5003017;28;20111;-88
2024/01/27 10:50:46;;;;;;;31.92;9.55;;;2.60;99.90;;;;;;4969163;28;20324;-87
2024/01/27 10:53:24;;;;;;;25.48;7.28;;;3.80;99.90;;;;;;5013366;28;20045;-86
2024/01/27 10:56:03;;;;;;;19.58;6.65;;;7.40;99.90;;;;;;5002028;28;20040;-85
2024/01/27 10:58:40;;;;;;;32.08;8.98;;;5.70;99.90;;;;;;5000765;28;20084;-86
2024/01/27 11:01:10;;;;;;;21.50;7.38;;;5.70;99.90;;;;;;5017219;28;20064;-84
2024/01/27 11:03:41;;;;;;;31.58;7.07;;;6.50;99.90;;;;;;5016267;28;20422;-86
2024/01/27 11:06:14;;;;;;;26.30;8.10;;;6.20;99.90;;;;;;5017914;28;20166;-85
2024/01/27 11:08:44;;;;;;;25.08;7.93;;;6.10;99.90;;;;;;5012130;28;20058;-85
2024/01/27 11:11:12;;;;;;;24.83;6.80;;;5.40;99.90;;;;;;5017604;28;20096;-85
2024/01/27 11:13:45;;;;;;;25.00;7.25;;;6.70;99.90;;;;;;5017664;28;20401;-85
2024/01/27 11:16:27;;;;;;;26.02;8.32;;;6.20;99.90;;;;;;5001202;28;20114;-85
2024/01/27 11:18:53;;;;;;;28.40;6.28;;;5.70;99.90;;;;;;4999740;28;20063;-83
2024/01/27 11:21:22;;;;;;;19.88;6.85;;;6.50;99.90;;;;;;5015866;28;20044;-87
2024/01/27 11:23:53;;;;;;;19.50;6.72;;;6.70;99.90;;;;;;5016864;28;20127;-85
2024/01/27 11:26:31;;;;;;;;;;;;;;;;;;;;;
2024/01/27 11:29:07;;;;;;;28.10;6.10;;;6.10;99.90;;;;;;5017192;28;20632;-83
2024/01/27 11:31:33;;;;;;;22.27;6.95;;;6.30;99.90;;;;;;5016291;28;20111;-83
2024/01/27 11:34:02;;;;;;;25.10;6.70;;;6.40;99.90;;;;;;5016364;28;20098;-85
2024/01/27 11:36:28;;;;;;;23.27;6.30;;;6.60;99.90;;;;;;5000980;28;20525;-82
2024/01/27 11:38:58;;;;;;;17.25;5.75;;;7.50;99.90;;;;;;5003135;28;20040;-82
2024/01/27 11:41:32;;;;;;;18.02;5.63;;;6.20;99.90;;;;;;5017282;28;20125;-83
2024/01/27 11:44:01;;;;;;;28.85;5.70;;;6.50;99.90;;;;;;5009116;28;20262;-83
2024/01/27 11:46:30;;;;;;;19.27;7.03;;;6.50;99.90;;;;;;5023955;28;20056;-82
2024/01/27 11:48:56;;;;;;;26.60;6.28;;;4.50;99.90;;;;;;5020583;28;20191;-82
2024/01/27 11:51:23;;;;;;;20.77;7.10;;;6.60;99.90;;;;;;5002827;28;20085;-84
2024/01/27 11:53:49;;;;;;;23.02;6.20;;;6.80;99.90;;;;;;5025050;28;20052;-86
2024/01/27 11:56:15;;;;;;;24.48;5.55;;;5.20;99.90;;;;;;5024337;28;20146;-85
2024/01/27 11:58:48;;;;;;;26.33;8.48;;;7.10;99.90;;;;;;5023651;28;20048;-85
2024/01/27 12:01:14;;;;;;;26.90;6.57;;;8.00;99.90;;;;;;5047190;28;20049;-87
2024/01/27 12:03:40;;;;;;;19.33;6.38;;;7.50;99.90;;;;;;5028918;28;20045;-86
2024/01/27 12:06:07;;;;;;;19.27;4.95;;;7.00;99.90;;;;;;5024128;28;20093;-83
2024/01/27 12:08:35;;;;;;;23.70;6.50;;;5.20;99.90;;;;;;5024073;28;20047;-84
2024/01/27 12:11:01;;;;;;;24.20;5.22;;;6.80;99.90;;;;;;5020633;28;20083;-84
2024/01/27 12:13:28;;;;;;;19.85;4.88;;;6.90;99.90;;;;;;5024679;28;20135;-84
2024/01/27 12:15:54;;;;;;;19.60;4.25;;;7.00;99.90;;;;;;5044268;28;20061;-84
2024/01/27 12:18:20;;;;;;;18.55;4.15;;;7.00;99.90;;;;;;5043833;28;20785;-86
2024/01/27 12:20:46;;;;;;;18.60;3.90;;;7.10;99.90;;;;;;5029210;28;20045;-81
2024/01/27 12:23:12;;;;;;;20.08;4.72;;;7.10;99.90;;;;;;5041546;28;20401;-84
2024/01/27 12:25:38;;;;;;;16.30;3.67;;;7.10;99.90;;;;;;5043732;28;20122;-84
2024/01/27 12:28:05;;;;;;;25.83;5.28;;;7.10;99.90;;;;;;5028598;28;20064;-85
2024/01/27 12:30:34;;;;;;;16.33;3.85;;;7.20;99.90;;;;;;5048482;28;20565;-85
2024/01/27 12:33:01;;;;;;;12.60;3.42;;;7.20;99.90;;;;;;5026093;28;20144;-86
2024/01/27 12:35:29;;;;;;;19.45;5.68;;;7.20;99.90;;;;;;5023004;28;20059;-86
2024/01/27 12:37:55;;;;;;;19.92;3.45;;;7.10;99.90;;;;;;5024513;28;20051;-85
2024/01/27 12:40:21;;;;;;;22.05;4.53;;;7.20;99.90;;;;;;5025473;28;20037;-86
2024/01/27 12:42:48;;;;;;;21.63;3.80;;;7.20;99.90;;;;;;5031985;28;20051;-85
2024/01/27 12:45:14;;;;;;;15.57;4.65;;;7.20;99.90;;;;;;5023436;28;20297;-88
2024/01/27 12:47:40;;;;;;;18.45;3.50;;;7.30;99.90;;;;;;5037101;28;20522;-84